Kimberly Jane — WDF9115 — position and weather

sailwx.info

Track history (hours):
 
Tides and Currents Weather Stations Pressure Air Temp Water Temp Dewpoint Dewpoint Depression Visibility Wind Speed Wind Dir Waves Ship Positions

Kimberly Jane

Owner: Kirby Inland Marine LP, Houston, TX. More information available from US FCC via Universal Licensing System and Coast Guard Vessel Documentation Center.

Last reported at 2017-Nov-20 00:28 UTC. Time now 2017-Nov-21 01:00 UTC.
Position N 30°06' W 093°19'.

Length 211 m; draft 2.7 m.

Type: . MMSI: 367501920.

Date/timePositionNaut miles runAvg speedWind from/ knotsBaromVisibWave heightAir tempDewpointWater temp
2017-Nov-20 00:28N 30°06' W 093°19'0 0.0
2017-Nov-19 23:58N 30°06' W 093°19'0 0.0
2017-Nov-19 23:28N 30°06' W 093°19'0 0.0
2017-Nov-19 22:58N 30°06' W 093°19'0 0.0
2017-Nov-19 22:28N 30°06' W 093°19'0 0.2
2017-Nov-19 21:58N 30°06' W 093°19'1 2.5
2017-Nov-19 21:30N 30°05' W 093°20'3 6.2
2017-Nov-19 21:00N 30°04' W 093°23'3 6.3
2017-Nov-19 20:30N 30°04' W 093°27'3 5.0
2017-Nov-19 20:00N 30°04' W 093°30'3 5.6
2017-Nov-19 19:30N 30°04' W 093°33'3 5.1
2017-Nov-19 18:56N 30°04' W 093°36'75 2.6
2017-Nov-18 14:16N 29°33' W 094°55'2 8.3
2017-Nov-18 13:58N 29°35' W 094°56'3 6.7
2017-Nov-18 13:30N 29°38' W 094°58'4 8.1
2017-Nov-18 13:00N 29°42' W 094°60'4 6.9
2017-Nov-18 12:28N 29°44' W 095°03'3 0.2
2017-Nov-17 22:37N 29°42' W 095°01'1 8.8
2017-Nov-17 22:29N 29°42' W 094°60'4 8.7
2017-Nov-17 22:00N 29°38' W 094°58'4 8.7
2017-Nov-17 21:30N 29°34' W 094°55'  
2017-Nov-10 16:30N 30°04' W 093°30'3 5.1
2017-Nov-10 16:00N 30°04' W 093°27'3 5.2
2017-Nov-10 15:30N 30°04' W 093°24'2 4.8
2017-Nov-10 15:00N 30°04' W 093°22'2 4.3
2017-Nov-10 14:30N 30°05' W 093°20'2 3.3
2017-Nov-10 14:00N 30°06' W 093°18'1 1.6
2017-Nov-10 13:30N 30°05' W 093°17'1 2.9
2017-Nov-10 13:00N 30°04' W 093°16'0 0.1
2017-Nov-10 12:30N 30°04' W 093°16'0 0.2
2017-Nov-10 12:00N 30°04' W 093°16'0 0.3
2017-Nov-10 11:30N 30°04' W 093°16'0 0.0
2017-Nov-10 11:00N 30°04' W 093°16'0 0.3
2017-Nov-10 10:30N 30°04' W 093°16'1 2.4
2017-Nov-10 10:00N 30°02' W 093°16'2 3.1
2017-Nov-10 09:30N 30°02' W 093°14'2 3.9
2017-Nov-10 09:00N 29°60' W 093°13'1 1.5
2017-Nov-10 08:30N 29°59' W 093°13'2 4.3
2017-Nov-10 08:00N 29°58' W 093°11'2 4.4
2017-Nov-10 07:30N 29°56' W 093°09'2 4.6
2017-Nov-10 07:00N 29°56' W 093°06'2 4.9
2017-Nov-10 06:30N 29°56' W 093°04'2 3.2
2017-Nov-10 06:00N 29°56' W 093°02'  
Track history (hours):
 
Tides and Currents Weather Stations Pressure Air Temp Water Temp Dewpoint Dewpoint Depression Visibility Wind Speed Wind Dir Waves Ship Positions

Kimberly Jane

Owner: Kirby Inland Marine LP, Houston, TX. More information available from US FCC via Universal Licensing System and Coast Guard Vessel Documentation Center.

Last reported at 2017-Nov-20 00:28 UTC. Time now 2017-Nov-21 01:00 UTC.
Position N 30°06' W 093°19'.

Length 211 m; draft 2.7 m.

Type: . MMSI: 367501920.

Date/timePositionNaut miles runAvg speedWind from/ knotsBaromVisibWave heightAir tempDewpointWater temp
2017-Nov-20 00:28N 30°06' W 093°19'0 0.0
2017-Nov-19 23:58N 30°06' W 093°19'0 0.0
2017-Nov-19 23:28N 30°06' W 093°19'0 0.0
2017-Nov-19 22:58N 30°06' W 093°19'0 0.0
2017-Nov-19 22:28N 30°06' W 093°19'0 0.2
2017-Nov-19 21:58N 30°06' W 093°19'1 2.5
2017-Nov-19 21:30N 30°05' W 093°20'3 6.2
2017-Nov-19 21:00N 30°04' W 093°23'3 6.3
2017-Nov-19 20:30N 30°04' W 093°27'3 5.0
2017-Nov-19 20:00N 30°04' W 093°30'3 5.6
2017-Nov-19 19:30N 30°04' W 093°33'3 5.1
2017-Nov-19 18:56N 30°04' W 093°36'75 2.6
2017-Nov-18 14:16N 29°33' W 094°55'2 8.3
2017-Nov-18 13:58N 29°35' W 094°56'3 6.7
2017-Nov-18 13:30N 29°38' W 094°58'4 8.1
2017-Nov-18 13:00N 29°42' W 094°60'4 6.9
2017-Nov-18 12:28N 29°44' W 095°03'3 0.2
2017-Nov-17 22:37N 29°42' W 095°01'1 8.8
2017-Nov-17 22:29N 29°42' W 094°60'4 8.7
2017-Nov-17 22:00N 29°38' W 094°58'4 8.7
2017-Nov-17 21:30N 29°34' W 094°55'  
2017-Nov-10 16:30N 30°04' W 093°30'3 5.1
2017-Nov-10 16:00N 30°04' W 093°27'3 5.2
2017-Nov-10 15:30N 30°04' W 093°24'2 4.8
2017-Nov-10 15:00N 30°04' W 093°22'2 4.3
2017-Nov-10 14:30N 30°05' W 093°20'2 3.3
2017-Nov-10 14:00N 30°06' W 093°18'1 1.6
2017-Nov-10 13:30N 30°05' W 093°17'1 2.9
2017-Nov-10 13:00N 30°04' W 093°16'0 0.1
2017-Nov-10 12:30N 30°04' W 093°16'0 0.2
2017-Nov-10 12:00N 30°04' W 093°16'0 0.3
2017-Nov-10 11:30N 30°04' W 093°16'0 0.0
2017-Nov-10 11:00N 30°04' W 093°16'0 0.3
2017-Nov-10 10:30N 30°04' W 093°16'1 2.4
2017-Nov-10 10:00N 30°02' W 093°16'2 3.1
2017-Nov-10 09:30N 30°02' W 093°14'2 3.9
2017-Nov-10 09:00N 29°60' W 093°13'1 1.5
2017-Nov-10 08:30N 29°59' W 093°13'2 4.3
2017-Nov-10 08:00N 29°58' W 093°11'2 4.4
2017-Nov-10 07:30N 29°56' W 093°09'2 4.6
2017-Nov-10 07:00N 29°56' W 093°06'2 4.9
2017-Nov-10 06:30N 29°56' W 093°04'2 3.2
2017-Nov-10 06:00N 29°56' W 093°02'  

Dump ship's entire track history